sensor_id;sensor_type;location;lat;lon;timestamp;pressure;altitude;pressure_sealevel;temperature;humidity
30636;BME280;17400;52.392;9.750;2023-08-30T00:00:40;100231.00;;;17.46;100.00
30636;BME280;17400;52.392;9.750;2023-08-30T00:03:08;100226.88;;;17.44;100.00
30636;BME280;17400;52.392;9.750;2023-08-30T00:05:40;100224.41;;;17.42;100.00
30636;BME280;17400;52.392;9.750;2023-08-30T00:08:08;100230.09;;;17.41;100.00
30636;BME280;17400;52.392;9.750;2023-08-30T00:10:37;100228.47;;;17.40;100.00
30636;BME280;17400;52.392;9.750;2023-08-30T00:13:05;100223.22;;;17.38;100.00
30636;BME280;17400;52.392;9.750;2023-08-30T00:15:33;100227.63;;;17.39;100.00
30636;BME280;17400;52.392;9.750;2023-08-30T00:18:00;100228.69;;;17.38;100.00
30636;BME280;17400;52.392;9.750;2023-08-30T00:20:28;100225.41;;;17.36;100.00
30636;BME280;17400;52.392;9.750;2023-08-30T00:22:57;100230.81;;;17.31;100.00
30636;BME280;17400;52.392;9.750;2023-08-30T00:25:25;100232.34;;;17.22;100.00
30636;BME280;17400;52.392;9.750;2023-08-30T00:27:54;100234.09;;;17.11;100.00
30636;BME280;17400;52.392;9.750;2023-08-30T00:30:21;100229.38;;;17.06;100.00
30636;BME280;17400;52.392;9.750;2023-08-30T00:32:49;100232.13;;;17.06;100.00
30636;BME280;17400;52.392;9.750;2023-08-30T00:35:17;100226.97;;;17.10;100.00
30636;BME280;17400;52.392;9.750;2023-08-30T00:37:45;100224.50;;;17.08;100.00
30636;BME280;17400;52.392;9.750;2023-08-30T00:40:14;100220.53;;;16.99;100.00
30636;BME280;17400;52.392;9.750;2023-08-30T00:42:42;100221.94;;;17.02;100.00
30636;BME280;17400;52.392;9.750;2023-08-30T00:45:09;100215.06;;;16.99;100.00
30636;BME280;17400;52.392;9.750;2023-08-30T00:47:37;100225.41;;;16.97;100.00
30636;BME280;17400;52.392;9.750;2023-08-30T00:50:06;100217.47;;;16.95;100.00
30636;BME280;17400;52.392;9.750;2023-08-30T00:52:34;100218.81;;;16.93;100.00
30636;BME280;17400;52.392;9.750;2023-08-30T00:55:02;100222.28;;;16.88;100.00
30636;BME280;17400;52.392;9.750;2023-08-30T00:57:31;100225.00;;;16.88;100.00
30636;BME280;17400;52.392;9.750;2023-08-30T00:59:59;100222.75;;;16.85;100.00
30636;BME280;17400;52.392;9.750;2023-08-30T01:02:27;100219.47;;;16.83;100.00
30636;BME280;17400;52.392;9.750;2023-08-30T01:04:55;100220.72;;;16.75;100.00
30636;BME280;17400;52.392;9.750;2023-08-30T01:07:23;100219.94;;;16.80;100.00
30636;BME280;17400;52.392;9.750;2023-08-30T01:09:51;100219.22;;;16.85;100.00
30636;BME280;17400;52.392;9.750;2023-08-30T01:12:22;100227.16;;;16.86;100.00
30636;BME280;17400;52.392;9.750;2023-08-30T01:14:56;100219.78;;;16.87;100.00
30636;BME280;17400;52.392;9.750;2023-08-30T01:17:25;100219.78;;;16.87;100.00
30636;BME280;17400;52.392;9.750;2023-08-30T01:20:00;100216.22;;;16.86;100.00
30636;BME280;17400;52.392;9.750;2023-08-30T01:22:40;100208.28;;;16.85;100.00
30636;BME280;17400;52.392;9.750;2023-08-30T01:25:27;100209.34;;;16.83;100.00
30636;BME280;17400;52.392;9.750;2023-08-30T01:28:01;100204.94;;;16.82;100.00
30636;BME280;17400;52.392;9.750;2023-08-30T01:30:30;100204.13;;;16.82;100.00
30636;BME280;17400;52.392;9.750;2023-08-30T01:33:00;100202.22;;;16.82;100.00
30636;BME280;17400;52.392;9.750;2023-08-30T01:35:29;100198.34;;;16.78;100.00
30636;BME280;17400;52.392;9.750;2023-08-30T01:37:59;100201.00;;;16.73;100.00
30636;BME280;17400;52.392;9.750;2023-08-30T01:40:29;100198.78;;;16.70;100.00
30636;BME280;17400;52.392;9.750;2023-08-30T01:43:00;100195.41;;;16.63;100.00
30636;BME280;17400;52.392;9.750;2023-08-30T01:45:28;100196.63;;;16.55;100.00
30636;BME280;17400;52.392;9.750;2023-08-30T01:47:57;100191.41;;;16.54;100.00
30636;BME280;17400;52.392;9.750;2023-08-30T01:50:26;100196.06;;;16.53;100.00
30636;BME280;17400;52.392;9.750;2023-08-30T01:52:55;100199.28;;;16.50;100.00
30636;BME280;17400;52.392;9.750;2023-08-30T01:55:24;100192.69;;;16.46;100.00
30636;BME280;17400;52.392;9.750;2023-08-30T01:57:54;100185.22;;;16.41;100.00
30636;BME280;17400;52.392;9.750;2023-08-30T02:00:23;100186.53;;;16.39;100.00
30636;BME280;17400;52.392;9.750;2023-08-30T02:02:51;100187.38;;;16.39;100.00
30636;BME280;17400;52.392;9.750;2023-08-30T02:05:18;100183.00;;;16.38;100.00
30636;BME280;17400;52.392;9.750;2023-08-30T02:07:51;100185.38;;;16.35;100.00
30636;BME280;17400;52.392;9.750;2023-08-30T02:10:24;100186.38;;;16.28;100.00
30636;BME280;17400;52.392;9.750;2023-08-30T02:12:56;100183.56;;;16.23;100.00
30636;BME280;17400;52.392;9.750;2023-08-30T02:15:26;100182.16;;;16.21;100.00
30636;BME280;17400;52.392;9.750;2023-08-30T02:17:55;100177.78;;;16.20;100.00
30636;BME280;17400;52.392;9.750;2023-08-30T02:20:23;100178.25;;;16.16;100.00
30636;BME280;17400;52.392;9.750;2023-08-30T02:22:51;100185.53;;;16.11;100.00
30636;BME280;17400;52.392;9.750;2023-08-30T02:25:19;100182.81;;;16.11;100.00
30636;BME280;17400;52.392;9.750;2023-08-30T02:27:50;100183.06;;;16.09;100.00
30636;BME280;17400;52.392;9.750;2023-08-30T02:30:18;100181.66;;;16.07;100.00
30636;BME280;17400;52.392;9.750;2023-08-30T02:32:47;100177.25;;;16.06;100.00
30636;BME280;17400;52.392;9.750;2023-08-30T02:35:15;100174.25;;;16.07;100.00
30636;BME280;17400;52.392;9.750;2023-08-30T02:37:43;100176.44;;;16.05;100.00
30636;BME280;17400;52.392;9.750;2023-08-30T02:40:12;100175.59;;;16.05;100.00
30636;BME280;17400;52.392;9.750;2023-08-30T02:42:40;100172.84;;;16.05;100.00
30636;BME280;17400;52.392;9.750;2023-08-30T02:45:08;100184.03;;;16.03;100.00
30636;BME280;17400;52.392;9.750;2023-08-30T02:47:36;100184.28;;;16.02;100.00
30636;BME280;17400;52.392;9.750;2023-08-30T02:50:06;100186.66;;;15.98;100.00
30636;BME280;17400;52.392;9.750;2023-08-30T02:52:34;100182.78;;;15.94;100.00
30636;BME280;17400;52.392;9.750;2023-08-30T02:55:02;100179.94;;;15.89;100.00
30636;BME280;17400;52.392;9.750;2023-08-30T02:57:30;100172.88;;;15.88;100.00
30636;BME280;17400;52.392;9.750;2023-08-30T02:59:58;100172.59;;;15.89;100.00
30636;BME280;17400;52.392;9.750;2023-08-30T03:02:25;100171.75;;;15.89;100.00
30636;BME280;17400;52.392;9.750;2023-08-30T03:04:53;100176.56;;;15.81;100.00
30636;BME280;17400;52.392;9.750;2023-08-30T03:07:22;100168.59;;;15.80;100.00
30636;BME280;17400;52.392;9.750;2023-08-30T03:09:52;100163.97;;;15.80;100.00
30636;BME280;17400;52.392;9.750;2023-08-30T03:12:20;100163.03;;;15.75;100.00
30636;BME280;17400;52.392;9.750;2023-08-30T03:14:48;100162.13;;;15.69;100.00
30636;BME280;17400;52.392;9.750;2023-08-30T03:17:16;100159.78;;;15.61;100.00
30636;BME280;17400;52.392;9.750;2023-08-30T03:19:44;100160.63;;;15.61;100.00
30636;BME280;17400;52.392;9.750;2023-08-30T03:22:12;100159.78;;;15.61;100.00
30636;BME280;17400;52.392;9.750;2023-08-30T03:24:41;100167.38;;;15.59;100.00
30636;BME280;17400;52.392;9.750;2023-08-30T03:27:09;100167.13;;;15.60;100.00
30636;BME280;17400;52.392;9.750;2023-08-30T03:29:37;100171.53;;;15.61;100.00
30636;BME280;17400;52.392;9.750;2023-08-30T03:32:05;100164.75;;;15.64;100.00
30636;BME280;17400;52.392;9.750;2023-08-30T03:34:33;100166.31;;;15.60;100.00
30636;BME280;17400;52.392;9.750;2023-08-30T03:37:00;100154.81;;;15.58;100.00
30636;BME280;17400;52.392;9.750;2023-08-30T03:39:28;100152.59;;;15.55;100.00
30636;BME280;17400;52.392;9.750;2023-08-30T03:41:57;100149.16;;;15.47;100.00
30636;BME280;17400;52.392;9.750;2023-08-30T03:44:25;100159.41;;;15.40;100.00
30636;BME280;17400;52.392;9.750;2023-08-30T03:46:53;100156.66;;;15.40;100.00
30636;BME280;17400;52.392;9.750;2023-08-30T03:49:22;100157.22;;;15.42;100.00
30636;BME280;17400;52.392;9.750;2023-08-30T03:51:50;100151.22;;;15.40;100.00
30636;BME280;17400;52.392;9.750;2023-08-30T03:54:18;100147.88;;;15.38;100.00
30636;BME280;17400;52.392;9.750;2023-08-30T03:56:46;100148.63;;;15.33;100.00
30636;BME280;17400;52.392;9.750;2023-08-30T03:59:15;100151.09;;;15.35;100.00
30636;BME280;17400;52.392;9.750;2023-08-30T04:01:43;100157.22;;;15.42;100.00
30636;BME280;17400;52.392;9.750;2023-08-30T04:04:11;100146.03;;;15.56;100.00
30636;BME280;17400;52.392;9.750;2023-08-30T04:06:39;100140.19;;;15.64;100.00
30636;BME280;17400;52.392;9.750;2023-08-30T04:09:07;100147.38;;;15.70;100.00
30636;BME280;17400;52.392;9.750;2023-08-30T04:11:37;100148.38;;;15.64;100.00
30636;BME280;17400;52.392;9.750;2023-08-30T04:14:03;100141.94;;;15.70;100.00
30636;BME280;17400;52.392;9.750;2023-08-30T04:16:33;100137.16;;;15.77;100.00
30636;BME280;17400;52.392;9.750;2023-08-30T04:19:01;100137.28;;;15.82;100.00
30636;BME280;17400;52.392;9.750;2023-08-30T04:21:28;100132.66;;;15.83;100.00
30636;BME280;17400;52.392;9.750;2023-08-30T04:23:56;100126.63;;;15.81;100.00
30636;BME280;17400;52.392;9.750;2023-08-30T04:26:24;100131.59;;;15.72;100.00
30636;BME280;17400;52.392;9.750;2023-08-30T04:28:52;100132.00;;;15.64;100.00
30636;BME280;17400;52.392;9.750;2023-08-30T04:31:20;100122.72;;;15.65;100.00
30636;BME280;17400;52.392;9.750;2023-08-30T04:33:49;100130.34;;;15.63;100.00
30636;BME280;17400;52.392;9.750;2023-08-30T04:36:19;100126.56;;;15.64;100.00
30636;BME280;17400;52.392;9.750;2023-08-30T04:38:47;100131.41;;;15.62;100.00
30636;BME280;17400;52.392;9.750;2023-08-30T04:41:28;100131.41;;;15.62;100.00
30636;BME280;17400;52.392;9.750;2023-08-30T04:43:56;100128.94;;;15.60;100.00
30636;BME280;17400;52.392;9.750;2023-08-30T04:46:24;100134.06;;;15.57;100.00
30636;BME280;17400;52.392;9.750;2023-08-30T04:48:53;100135.47;;;15.59;100.00
30636;BME280;17400;52.392;9.750;2023-08-30T04:51:21;100124.91;;;15.63;100.00
30636;BME280;17400;52.392;9.750;2023-08-30T04:53:48;100133.19;;;15.68;100.00
30636;BME280;17400;52.392;9.750;2023-08-30T04:56:16;100138.97;;;15.72;100.00
30636;BME280;17400;52.392;9.750;2023-08-30T04:58:44;100139.78;;;15.72;100.00
30636;BME280;17400;52.392;9.750;2023-08-30T05:01:12;100130.78;;;15.72;100.00
30636;BME280;17400;52.392;9.750;2023-08-30T05:03:41;100124.59;;;15.76;100.00
30636;BME280;17400;52.392;9.750;2023-08-30T05:06:10;100122.44;;;15.78;100.00
30636;BME280;17400;52.392;9.750;2023-08-30T05:08:42;100126.38;;;15.82;100.00
30636;BME280;17400;52.392;9.750;2023-08-30T05:11:10;100125.06;;;15.85;100.00
30636;BME280;17400;52.392;9.750;2023-08-30T05:13:38;100128.94;;;15.89;100.00
30636;BME280;17400;52.392;9.750;2023-08-30T05:16:06;100134.41;;;15.89;100.00
30636;BME280;17400;52.392;9.750;2023-08-30T05:18:34;100133.06;;;15.92;100.00
30636;BME280;17400;52.392;9.750;2023-08-30T05:21:01;100127.03;;;15.90;100.00
30636;BME280;17400;52.392;9.750;2023-08-30T05:23:31;100128.84;;;15.84;100.00
30636;BME280;17400;52.392;9.750;2023-08-30T05:25:59;100125.38;;;15.89;100.00
30636;BME280;17400;52.392;9.750;2023-08-30T05:28:27;100128.19;;;15.94;100.00
30636;BME280;17400;52.392;9.750;2023-08-30T05:30:55;100124.72;;;15.98;100.00
30636;BME280;17400;52.392;9.750;2023-08-30T05:33:22;100122.25;;;15.97;100.00
30636;BME280;17400;52.392;9.750;2023-08-30T05:35:50;100127.19;;;16.00;100.00
30636;BME280;17400;52.392;9.750;2023-08-30T05:38:18;100130.03;;;16.05;100.00
30636;BME280;17400;52.392;9.750;2023-08-30T05:40:47;100125.13;;;16.07;100.00
30636;BME280;17400;52.392;9.750;2023-08-30T05:43:15;100116.72;;;16.09;100.00
30636;BME280;17400;52.392;9.750;2023-08-30T05:45:44;100117.88;;;16.13;100.00
30636;BME280;17400;52.392;9.750;2023-08-30T05:48:12;100135.06;;;16.13;100.00
30636;BME280;17400;52.392;9.750;2023-08-30T05:50:40;100129.59;;;16.13;100.00
30636;BME280;17400;52.392;9.750;2023-08-30T05:53:08;100127.69;;;16.14;100.00
30636;BME280;17400;52.392;9.750;2023-08-30T05:55:36;100132.25;;;16.08;100.00
30636;BME280;17400;52.392;9.750;2023-08-30T05:58:05;100134.16;;;16.08;100.00
30636;BME280;17400;52.392;9.750;2023-08-30T06:00:33;100133.38;;;15.95;100.00
30636;BME280;17400;52.392;9.750;2023-08-30T06:03:01;100128.53;;;15.97;100.00
30636;BME280;17400;52.392;9.750;2023-08-30T06:05:29;100127.28;;;16.05;100.00
30636;BME280;17400;52.392;9.750;2023-08-30T06:07:57;100123.31;;;15.96;100.00
30636;BME280;17400;52.392;9.750;2023-08-30T06:10:25;100117.34;;;15.82;100.00
30636;BME280;17400;52.392;9.750;2023-08-30T06:12:52;100115.44;;;15.82;100.00
30636;BME280;17400;52.392;9.750;2023-08-30T06:15:22;100119.53;;;15.97;100.00
30636;BME280;17400;52.392;9.750;2023-08-30T06:17:49;100118.75;;;16.02;100.00
30636;BME280;17400;52.392;9.750;2023-08-30T06:20:17;100118.50;;;16.03;100.00
30636;BME280;17400;52.392;9.750;2023-08-30T06:22:45;100119.19;;;16.10;100.00
30636;BME280;17400;52.392;9.750;2023-08-30T06:25:13;100112.16;;;16.14;100.00
30636;BME280;17400;52.392;9.750;2023-08-30T06:27:42;100110.56;;;16.19;100.00
30636;BME280;17400;52.392;9.750;2023-08-30T06:30:11;100111.72;;;16.23;100.00
30636;BME280;17400;52.392;9.750;2023-08-30T06:32:40;100109.41;;;16.14;100.00
30636;BME280;17400;52.392;9.750;2023-08-30T06:35:08;100113.56;;;16.17;100.00
30636;BME280;17400;52.392;9.750;2023-08-30T06:37:36;100108.25;;;16.27;100.00
30636;BME280;17400;52.392;9.750;2023-08-30T06:40:05;100111.72;;;16.40;100.00
30636;BME280;17400;52.392;9.750;2023-08-30T06:42:33;100105.81;;;16.48;100.00
30636;BME280;17400;52.392;9.750;2023-08-30T06:45:01;100096.09;;;16.57;100.00
30636;BME280;17400;52.392;9.750;2023-08-30T06:47:29;100089.63;;;16.63;100.00
30636;BME280;17400;52.392;9.750;2023-08-30T06:49:58;100095.44;;;16.67;100.00
30636;BME280;17400;52.392;9.750;2023-08-30T06:52:27;100097.06;;;16.68;100.00
30636;BME280;17400;52.392;9.750;2023-08-30T06:54:55;100098.16;;;16.67;100.00
30636;BME280;17400;52.392;9.750;2023-08-30T06:57:23;100099.88;;;16.73;100.00
30636;BME280;17400;52.392;9.750;2023-08-30T06:59:50;100108.06;;;16.73;100.00
30636;BME280;17400;52.392;9.750;2023-08-30T07:02:18;100092.25;;;16.75;100.00
30636;BME280;17400;52.392;9.750;2023-08-30T07:04:46;100095.94;;;16.86;100.00
30636;BME280;17400;52.392;9.750;2023-08-30T07:07:15;100093.84;;;16.93;100.00
30636;BME280;17400;52.392;9.750;2023-08-30T07:09:43;100087.56;;;16.93;100.00
30636;BME280;17400;52.392;9.750;2023-08-30T07:12:11;100087.03;;;16.91;100.00
30636;BME280;17400;52.392;9.750;2023-08-30T07:14:39;100082.69;;;16.95;100.00
30636;BME280;17400;52.392;9.750;2023-08-30T07:17:06;100082.63;;;16.90;100.00
30636;BME280;17400;52.392;9.750;2023-08-30T07:19:34;100080.94;;;16.89;100.00
30636;BME280;17400;52.392;9.750;2023-08-30T07:22:02;100084.91;;;16.98;100.00
30636;BME280;17400;52.392;9.750;2023-08-30T07:24:32;100079.88;;;17.12;100.00
30636;BME280;17400;52.392;9.750;2023-08-30T07:26:59;100072.03;;;17.21;100.00
30636;BME280;17400;52.392;9.750;2023-08-30T07:29:27;100071.81;;;17.27;100.00
30636;BME280;17400;52.392;9.750;2023-08-30T07:31:55;100075.50;;;17.38;100.00
30636;BME280;17400;52.392;9.750;2023-08-30T07:34:23;100073.19;;;17.52;100.00
30636;BME280;17400;52.392;9.750;2023-08-30T07:36:54;100068.63;;;17.63;100.00
30636;BME280;17400;52.392;9.750;2023-08-30T07:39:22;100067.81;;;17.62;100.00
30636;BME280;17400;52.392;9.750;2023-08-30T07:41:51;100080.16;;;17.65;100.00
30636;BME280;17400;52.392;9.750;2023-08-30T07:44:19;100068.97;;;17.72;100.00
30636;BME280;17400;52.392;9.750;2023-08-30T07:46:47;100078.63;;;17.79;100.00
30636;BME280;17400;52.392;9.750;2023-08-30T07:49:14;100075.91;;;17.85;100.00
30636;BME280;17400;52.392;9.750;2023-08-30T07:51:42;100072.41;;;17.89;100.00
30636;BME280;17400;52.392;9.750;2023-08-30T07:54:11;100069.94;;;17.88;100.00
30636;BME280;17400;52.392;9.750;2023-08-30T07:56:39;100061.78;;;17.93;100.00
30636;BME280;17400;52.392;9.750;2023-08-30T07:59:08;100070.59;;;18.00;100.00
30636;BME280;17400;52.392;9.750;2023-08-30T08:01:36;100071.44;;;18.01;100.00
30636;BME280;17400;52.392;9.750;2023-08-30T08:04:04;100064.03;;;18.01;100.00
30636;BME280;17400;52.392;9.750;2023-08-30T08:06:33;100072.03;;;18.08;100.00
30636;BME280;17400;52.392;9.750;2023-08-30T08:09:04;100062.16;;;18.07;100.00
30636;BME280;17400;52.392;9.750;2023-08-30T08:11:32;100063.56;;;18.14;100.00
30636;BME280;17400;52.392;9.750;2023-08-30T08:14:02;100065.53;;;18.24;100.00
30636;BME280;17400;52.392;9.750;2023-08-30T08:16:32;100061.22;;;18.28;100.00
30636;BME280;17400;52.392;9.750;2023-08-30T08:19:00;100061.56;;;18.42;100.00
30636;BME280;17400;52.392;9.750;2023-08-30T08:21:28;100062.91;;;18.40;100.00
30636;BME280;17400;52.392;9.750;2023-08-30T08:23:56;100066.50;;;18.40;100.00
30636;BME280;17400;52.392;9.750;2023-08-30T08:26:24;100064.34;;;18.53;100.00
30636;BME280;17400;52.392;9.750;2023-08-30T08:28:53;100064.91;;;18.55;99.87
30636;BME280;17400;52.392;9.750;2023-08-30T08:31:21;100062.22;;;18.65;99.52
30636;BME280;17400;52.392;9.750;2023-08-30T08:34:07;100059.25;;;18.77;98.74
30636;BME280;17400;52.392;9.750;2023-08-30T08:36:36;100052.47;;;18.90;98.23
30636;BME280;17400;52.392;9.750;2023-08-30T08:39:04;100045.66;;;18.97;98.53
30636;BME280;17400;52.392;9.750;2023-08-30T08:41:35;100050.06;;;19.09;99.15
30636;BME280;17400;52.392;9.750;2023-08-30T08:44:06;100053.94;;;19.18;99.39
30636;BME280;17400;52.392;9.750;2023-08-30T08:46:36;100045.44;;;19.20;99.60
30636;BME280;17400;52.392;9.750;2023-08-30T08:49:09;100051.19;;;19.23;98.51
30636;BME280;17400;52.392;9.750;2023-08-30T08:51:39;100050.94;;;19.30;98.54
30636;BME280;17400;52.392;9.750;2023-08-30T08:54:08;100050.44;;;19.38;97.04
30636;BME280;17400;52.392;9.750;2023-08-30T08:56:37;100047.38;;;19.35;96.13
30636;BME280;17400;52.392;9.750;2023-08-30T08:59:06;100050.13;;;19.29;96.74
30636;BME280;17400;52.392;9.750;2023-08-30T09:01:36;100051.22;;;19.28;97.00
30636;BME280;17400;52.392;9.750;2023-08-30T09:04:09;100041.63;;;19.31;96.64
30636;BME280;17400;52.392;9.750;2023-08-30T09:06:38;100049.03;;;19.36;97.26
30636;BME280;17400;52.392;9.750;2023-08-30T09:09:08;100050.97;;;19.51;95.98
30636;BME280;17400;52.392;9.750;2023-08-30T09:11:35;100048.78;;;19.42;95.76
30636;BME280;17400;52.392;9.750;2023-08-30T09:14:16;100041.31;;;19.22;96.93
30636;BME280;17400;52.392;9.750;2023-08-30T09:16:54;100042.69;;;19.30;97.37
30636;BME280;17400;52.392;9.750;2023-08-30T09:19:23;100041.09;;;19.44;96.98
30636;BME280;17400;52.392;9.750;2023-08-30T09:21:51;100042.75;;;19.51;96.81
30636;BME280;17400;52.392;9.750;2023-08-30T09:24:20;100037.53;;;19.49;96.57
30636;BME280;17400;52.392;9.750;2023-08-30T09:26:48;100041.09;;;19.44;97.74
30636;BME280;17400;52.392;9.750;2023-08-30T09:29:18;100044.38;;;19.46;98.67
30636;BME280;17400;52.392;9.750;2023-08-30T09:31:46;100046.84;;;19.48;99.19
30636;BME280;17400;52.392;9.750;2023-08-30T09:34:14;100038.06;;;19.41;98.94
30636;BME280;17400;52.392;9.750;2023-08-30T09:36:43;100037.78;;;19.37;97.99
30636;BME280;17400;52.392;9.750;2023-08-30T09:39:14;100048.22;;;19.40;97.87
30636;BME280;17400;52.392;9.750;2023-08-30T09:41:42;100036.16;;;19.52;96.70
30636;BME280;17400;52.392;9.750;2023-08-30T09:44:10;100037.28;;;19.66;95.95
30636;BME280;17400;52.392;9.750;2023-08-30T09:46:41;100038.38;;;19.80;96.57
30636;BME280;17400;52.392;9.750;2023-08-30T09:49:18;100040.31;;;19.95;95.41
30636;BME280;17400;52.392;9.750;2023-08-30T09:51:49;100033.16;;;19.94;93.15
30636;BME280;17400;52.392;9.750;2023-08-30T09:54:20;100035.34;;;19.92;93.40
30636;BME280;17400;52.392;9.750;2023-08-30T09:57:05;100033.72;;;19.81;92.43
30636;BME280;17400;52.392;9.750;2023-08-30T09:59:33;100030.38;;;19.74;90.42
30636;BME280;17400;52.392;9.750;2023-08-30T10:02:01;100022.69;;;19.60;89.45
30636;BME280;17400;52.392;9.750;2023-08-30T10:04:32;100033.94;;;19.54;90.01
30636;BME280;17400;52.392;9.750;2023-08-30T10:07:02;100030.41;;;19.53;91.10
30636;BME280;17400;52.392;9.750;2023-08-30T10:09:32;100040.00;;;19.51;91.48
30636;BME280;17400;52.392;9.750;2023-08-30T10:12:01;100029.81;;;19.51;91.83
30636;BME280;17400;52.392;9.750;2023-08-30T10:14:30;100027.66;;;19.53;91.92
30636;BME280;17400;52.392;9.750;2023-08-30T10:17:01;100032.31;;;19.37;92.28
30636;BME280;17400;52.392;9.750;2023-08-30T10:19:30;100030.34;;;19.33;92.91
30636;BME280;17400;52.392;9.750;2023-08-30T10:22:03;100025.16;;;19.31;92.88
30636;BME280;17400;52.392;9.750;2023-08-30T10:24:39;100024.88;;;19.38;93.06
30636;BME280;17400;52.392;9.750;2023-08-30T10:27:29;100025.72;;;19.38;92.67
30636;BME280;17400;52.392;9.750;2023-08-30T10:29:59;100026.25;;;19.45;92.05
30636;BME280;17400;52.392;9.750;2023-08-30T10:32:29;100024.09;;;19.47;92.09
30636;BME280;17400;52.392;9.750;2023-08-30T10:35:00;100030.41;;;19.53;92.23
30636;BME280;17400;52.392;9.750;2023-08-30T10:37:30;100024.34;;;19.56;91.98
30636;BME280;17400;52.392;9.750;2023-08-30T10:40:03;100019.94;;;19.60;91.40
30636;BME280;17400;52.392;9.750;2023-08-30T10:42:33;100019.41;;;19.63;91.13
30636;BME280;17400;52.392;9.750;2023-08-30T10:45:03;100029.28;;;19.64;92.22
30636;BME280;17400;52.392;9.750;2023-08-30T10:47:35;100025.16;;;19.72;92.49
30636;BME280;17400;52.392;9.750;2023-08-30T10:50:06;100019.66;;;19.77;92.95
30636;BME280;17400;52.392;9.750;2023-08-30T10:52:36;100014.75;;;19.79;90.78
30636;BME280;17400;52.392;9.750;2023-08-30T10:55:05;100013.13;;;19.84;90.14
30636;BME280;17400;52.392;9.750;2023-08-30T10:57:33;100009.00;;;19.91;89.90
30636;BME280;17400;52.392;9.750;2023-08-30T11:00:06;100013.09;;;19.99;89.26
30636;BME280;17400;52.392;9.750;2023-08-30T11:02:36;100007.06;;;20.02;88.76
30636;BME280;17400;52.392;9.750;2023-08-30T11:05:06;100004.81;;;20.09;88.17
30636;BME280;17400;52.392;9.750;2023-08-30T11:07:34;100000.69;;;20.12;87.80
30636;BME280;17400;52.392;9.750;2023-08-30T11:10:05;99999.88;;;20.17;87.99
30636;BME280;17400;52.392;9.750;2023-08-30T11:12:34;99992.16;;;20.19;87.46
30636;BME280;17400;52.392;9.750;2023-08-30T11:15:03;99987.72;;;20.28;87.85
30636;BME280;17400;52.392;9.750;2023-08-30T11:17:31;99977.81;;;20.32;87.40
30636;BME280;17400;52.392;9.750;2023-08-30T11:20:05;99981.69;;;20.31;85.84
30636;BME280;17400;52.392;9.750;2023-08-30T11:22:35;99970.16;;;20.24;83.10
30636;BME280;17400;52.392;9.750;2023-08-30T11:25:07;99976.22;;;20.21;82.46
30636;BME280;17400;52.392;9.750;2023-08-30T11:27:35;99979.25;;;20.29;83.85
30636;BME280;17400;52.392;9.750;2023-08-30T11:30:03;99976.41;;;20.45;84.26
30636;BME280;17400;52.392;9.750;2023-08-30T11:32:32;99977.75;;;20.53;83.36
30636;BME280;17400;52.392;9.750;2023-08-30T11:35:02;99964.03;;;20.47;81.43
30636;BME280;17400;52.392;9.750;2023-08-30T11:37:30;99971.47;;;20.42;82.04
30636;BME280;17400;52.392;9.750;2023-08-30T11:40:01;99965.72;;;20.38;82.31
30636;BME280;17400;52.392;9.750;2023-08-30T11:42:32;99958.88;;;20.30;82.22
30636;BME280;17400;52.392;9.750;2023-08-30T11:45:00;99963.53;;;20.35;82.94
30636;BME280;17400;52.392;9.750;2023-08-30T11:47:28;99959.91;;;20.45;81.22
30636;BME280;17400;52.392;9.750;2023-08-30T11:49:57;99953.00;;;20.58;78.40
30636;BME280;17400;52.392;9.750;2023-08-30T11:52:25;99939.69;;;20.80;70.19
30636;BME280;17400;52.392;9.750;2023-08-30T11:54:54;99937.41;;;20.93;67.27
30636;BME280;17400;52.392;9.750;2023-08-30T11:57:22;99930.28;;;20.92;65.60
30636;BME280;17400;52.392;9.750;2023-08-30T11:59:54;99932.75;;;20.93;67.21
30636;BME280;17400;52.392;9.750;2023-08-30T12:02:22;99924.75;;;20.97;65.37
30636;BME280;17400;52.392;9.750;2023-08-30T12:04:50;99921.06;;;21.12;64.80
30636;BME280;17400;52.392;9.750;2023-08-30T12:07:24;99911.31;;;21.25;63.44
30636;BME280;17400;52.392;9.750;2023-08-30T12:09:52;99915.09;;;21.34;63.72
30636;BME280;17400;52.392;9.750;2023-08-30T12:12:31;99912.72;;;21.52;60.63
30636;BME280;17400;52.392;9.750;2023-08-30T12:15:00;99912.31;;;21.69;59.37
30636;BME280;17400;52.392;9.750;2023-08-30T12:17:29;99917.78;;;21.74;56.08
30636;BME280;17400;52.392;9.750;2023-08-30T12:19:57;99897.19;;;21.90;57.12
30636;BME280;17400;52.392;9.750;2023-08-30T12:22:36;99895.16;;;21.77;58.26
30636;BME280;17400;52.392;9.750;2023-08-30T12:25:15;99894.44;;;21.90;55.23
30636;BME280;17400;52.392;9.750;2023-08-30T12:27:43;99881.56;;;21.86;54.58
30636;BME280;17400;52.392;9.750;2023-08-30T12:30:13;99890.69;;;22.05;55.74
30636;BME280;17400;52.392;9.750;2023-08-30T12:32:41;99890.69;;;22.05;57.11
30636;BME280;17400;52.392;9.750;2023-08-30T12:35:09;99883.53;;;22.04;54.97
30636;BME280;17400;52.392;9.750;2023-08-30T12:37:37;99879.16;;;22.03;55.94
30636;BME280;17400;52.392;9.750;2023-08-30T12:40:05;99873.53;;;22.33;53.11
30636;BME280;17400;52.392;9.750;2023-08-30T12:42:34;99880.34;;;22.40;53.40
30636;BME280;17400;52.392;9.750;2023-08-30T12:45:02;99872.38;;;22.39;50.09
30636;BME280;17400;52.392;9.750;2023-08-30T12:47:31;99873.78;;;22.36;51.79
30636;BME280;17400;52.392;9.750;2023-08-30T12:49:59;99872.38;;;22.14;51.06
30636;BME280;17400;52.392;9.750;2023-08-30T12:52:27;99860.66;;;22.04;53.21
30636;BME280;17400;52.392;9.750;2023-08-30T12:54:55;99865.97;;;22.00;53.19